Time;durP1;ratioP1;P1;durP2;ratioP2;P2;SDS_P1;SDS_P2;PMS_P1;PMS_P2;Temp;Humidity;BMP_temperature;BMP_pressure;BME280_temperature;BME280_humidity;BME280_pressure;Samples;Min_cycle;Max_cycle;Signal;HPM_P1;HPM_P2
2021/05/12 00:01:49;;;;;;;1.77;1.55;;;11.50;99.90;;;;;;5053283;28;20021;-76
2021/05/12 00:04:15;;;;;;;1.80;1.55;;;11.40;99.90;;;;;;5053080;28;20448;-75
2021/05/12 00:06:40;;;;;;;3.95;2.10;;;11.40;99.90;;;;;;5053163;28;20025;-75
2021/05/12 00:09:06;;;;;;;2.90;2.22;;;11.30;99.90;;;;;;5052976;28;20362;-76
2021/05/12 00:11:32;;;;;;;3.45;2.40;;;11.30;99.90;;;;;;5051731;28;20017;-75
2021/05/12 00:13:57;;;;;;;4.32;2.40;;;11.30;99.90;;;;;;5053226;28;20025;-76
2021/05/12 00:16:23;;;;;;;2.10;1.90;;;11.20;99.90;;;;;;5052983;28;20056;-75
2021/05/12 00:18:48;;;;;;;2.63;2.15;;;11.20;99.90;;;;;;5052949;28;20021;-75
2021/05/12 00:21:26;;;;;;;3.30;2.38;;;11.20;99.90;;;;;;5051755;28;20025;-75
2021/05/12 00:23:59;;;;;;;4.07;2.10;;;11.20;99.90;;;;;;5051614;28;20486;-75
2021/05/12 00:26:36;;;;;;;4.13;3.10;;;11.20;99.90;;;;;;5052872;28;20025;-75
2021/05/12 00:29:07;;;;;;;2.83;2.17;;;11.10;99.90;;;;;;5052715;28;20025;-75
2021/05/12 00:31:33;;;;;;;3.60;2.25;;;11.10;99.90;;;;;;5053012;28;20163;-75
2021/05/12 00:33:59;;;;;;;5.03;3.13;;;11.10;99.90;;;;;;5052754;28;20090;-75
2021/05/12 00:36:27;;;;;;;4.15;2.35;;;11.10;99.90;;;;;;5052748;28;20025;-74
2021/05/12 00:38:53;;;;;;;2.92;2.28;;;11.10;99.90;;;;;;5052633;28;20017;-75
2021/05/12 00:41:18;;;;;;;3.65;2.20;;;11.00;99.90;;;;;;5052841;28;20033;-74
2021/05/12 00:43:44;;;;;;;3.15;2.65;;;11.00;99.90;;;;;;5052436;28;20033;-75
2021/05/12 00:46:10;;;;;;;2.58;2.17;;;11.00;99.90;;;;;;5051205;28;20036;-74
2021/05/12 00:48:36;;;;;;;2.97;2.38;;;11.00;99.90;;;;;;5052297;28;20025;-74
2021/05/12 00:51:02;;;;;;;2.72;2.00;;;10.90;99.90;;;;;;5051075;28;20486;-75
2021/05/12 00:53:28;;;;;;;2.95;2.13;;;10.90;99.90;;;;;;5051257;28;20029;-75
2021/05/12 00:55:54;;;;;;;2.40;2.20;;;10.90;99.90;;;;;;5052725;28;20075;-74
2021/05/12 00:58:20;;;;;;;3.22;2.00;;;10.90;99.90;;;;;;5052255;28;20025;-74
2021/05/12 01:00:45;;;;;;;3.17;2.15;;;10.90;99.90;;;;;;5052259;28;20497;-74
2021/05/12 01:03:11;;;;;;;1.92;1.63;;;10.90;99.90;;;;;;5052406;28;20044;-74
2021/05/12 01:05:37;;;;;;;1.70;1.55;;;10.90;99.90;;;;;;5050806;28;20025;-74
2021/05/12 01:08:06;;;;;;;3.15;1.48;;;10.80;99.90;;;;;;5052060;28;20485;-75
2021/05/12 01:10:33;;;;;;;2.78;1.30;;;10.80;99.90;;;;;;5051890;28;20028;-74
2021/05/12 01:12:59;;;;;;;1.52;1.25;;;10.90;99.90;;;;;;5052076;28;20029;-74
2021/05/12 01:15:26;;;;;;;3.08;1.33;;;10.90;99.90;;;;;;5051927;28;20025;-75
2021/05/12 01:17:52;;;;;;;2.65;1.20;;;10.90;99.90;;;;;;5052906;28;20037;-76
2021/05/12 01:20:18;;;;;;;3.42;1.10;;;10.80;99.90;;;;;;5050970;28;20073;-75
2021/05/12 01:22:43;;;;;;;1.00;0.90;;;10.80;99.90;;;;;;5053716;28;20025;-76
2021/05/12 01:25:10;;;;;;;0.80;0.80;;;10.80;99.90;;;;;;5052469;28;20099;-75
2021/05/12 01:27:36;;;;;;;1.88;1.00;;;10.80;99.90;;;;;;5052056;28;20032;-76
2021/05/12 01:30:02;;;;;;;1.52;0.80;;;10.70;99.90;;;;;;5051937;28;20021;-76
2021/05/12 01:32:35;;;;;;;1.30;0.70;;;10.70;99.90;;;;;;5050989;28;20021;-76
2021/05/12 01:35:09;;;;;;;2.95;0.90;;;10.70;99.90;;;;;;5051731;28;20047;-76
2021/05/12 01:37:35;;;;;;;1.70;1.00;;;10.70;99.90;;;;;;5051647;28;20047;-76
2021/05/12 01:40:05;;;;;;;1.52;0.90;;;10.70;99.90;;;;;;5051577;28;20021;-76
2021/05/12 01:42:30;;;;;;;4.63;0.90;;;10.60;99.90;;;;;;5051458;28;20513;-76
2021/05/12 01:45:06;;;;;;;2.10;0.80;;;10.60;99.90;;;;;;5050009;28;20110;-76
2021/05/12 01:47:32;;;;;;;1.17;0.90;;;10.60;99.90;;;;;;5051583;28;20017;-76
2021/05/12 01:50:01;;;;;;;1.42;0.90;;;10.60;99.90;;;;;;5050133;28;20508;-76
2021/05/12 01:52:26;;;;;;;1.73;1.05;;;10.60;99.90;;;;;;5051366;28;20122;-77
2021/05/12 01:54:52;;;;;;;1.48;0.90;;;10.60;99.90;;;;;;5049961;28;20506;-77
2021/05/12 01:57:17;;;;;;;1.60;1.00;;;10.60;99.90;;;;;;5049940;28;20078;-77
2021/05/12 01:59:43;;;;;;;1.48;0.88;;;10.60;99.90;;;;;;5051440;28;20508;-77
2021/05/12 02:02:09;;;;;;;1.23;1.13;;;10.50;99.90;;;;;;5049788;28;20402;-76
2021/05/12 02:04:38;;;;;;;1.48;0.82;;;10.50;99.90;;;;;;5050951;28;20511;-77
2021/05/12 02:07:04;;;;;;;1.60;0.90;;;10.50;99.90;;;;;;5049649;28;20032;-77
2021/05/12 02:09:37;;;;;;;2.25;1.10;;;10.50;99.90;;;;;;5049620;28;20021;-76
2021/05/12 02:12:03;;;;;;;1.63;1.00;;;10.50;99.90;;;;;;5049653;28;20032;-77
2021/05/12 02:14:29;;;;;;;2.78;0.82;;;10.40;99.90;;;;;;5049446;28;20023;-76
2021/05/12 02:16:54;;;;;;;0.82;0.65;;;10.40;99.90;;;;;;5049579;28;20092;-76
2021/05/12 02:19:20;;;;;;;0.82;0.82;;;10.30;99.90;;;;;;5049479;28;20017;-76
2021/05/12 02:21:45;;;;;;;1.80;1.00;;;10.30;99.90;;;;;;5049274;28;20390;-77
2021/05/12 02:24:11;;;;;;;3.55;0.90;;;10.30;99.90;;;;;;5048922;28;20390;-77
2021/05/12 02:26:37;;;;;;;3.17;0.82;;;10.30;99.90;;;;;;5050875;28;20051;-76
2021/05/12 02:29:03;;;;;;;1.25;0.93;;;10.20;99.90;;;;;;5050541;28;20129;-76
2021/05/12 02:31:28;;;;;;;1.45;0.80;;;10.20;99.90;;;;;;5050497;28;20032;-76
2021/05/12 02:33:54;;;;;;;1.90;1.20;;;10.20;99.90;;;;;;5049121;28;20510;-76
2021/05/12 02:36:20;;;;;;;1.38;0.80;;;10.20;99.90;;;;;;5050949;28;20021;-76
2021/05/12 02:38:45;;;;;;;1.15;0.80;;;10.20;99.90;;;;;;5048999;28;20032;-76
2021/05/12 02:41:12;;;;;;;2.42;1.10;;;10.20;99.90;;;;;;5050094;28;20044;-76
2021/05/12 02:43:37;;;;;;;1.77;1.10;;;10.20;99.90;;;;;;5050175;28;20021;-76
2021/05/12 02:46:03;;;;;;;1.23;0.82;;;10.20;99.90;;;;;;5049150;28;20051;-76
2021/05/12 02:48:29;;;;;;;1.00;0.90;;;10.30;99.90;;;;;;5050077;28;20029;-76
2021/05/12 02:50:55;;;;;;;0.90;0.70;;;10.20;99.90;;;;;;5048930;28;20074;-76
2021/05/12 02:53:22;;;;;;;1.33;0.90;;;10.20;99.90;;;;;;5048627;28;20017;-76
2021/05/12 02:55:47;;;;;;;1.30;1.00;;;10.20;99.90;;;;;;5048879;28;20041;-76
2021/05/12 02:58:13;;;;;;;1.63;1.13;;;10.20;99.90;;;;;;5049976;28;20033;-77
2021/05/12 03:00:40;;;;;;;1.05;0.80;;;10.20;99.90;;;;;;5050000;28;20112;-76
2021/05/12 03:03:07;;;;;;;1.90;0.75;;;10.20;99.90;;;;;;5049924;28;20036;-76
2021/05/12 03:05:33;;;;;;;2.05;0.60;;;10.10;99.90;;;;;;5048656;28;20020;-76
2021/05/12 03:07:59;;;;;;;0.55;0.55;;;10.20;99.90;;;;;;5048422;28;20501;-75
2021/05/12 03:10:25;;;;;;;1.42;0.77;;;10.10;99.90;;;;;;5048500;28;20482;-76
2021/05/12 03:12:51;;;;;;;0.77;0.75;;;10.10;99.90;;;;;;5049996;28;20046;-74
2021/05/12 03:15:19;;;;;;;1.58;0.60;;;10.10;99.90;;;;;;5049571;28;20067;-76
2021/05/12 03:17:45;;;;;;;3.40;0.68;;;10.10;99.90;;;;;;5049803;28;20033;-76
2021/05/12 03:20:11;;;;;;;0.60;0.38;;;10.10;99.90;;;;;;5049921;28;20021;-76
2021/05/12 03:22:37;;;;;;;0.82;0.73;;;10.10;99.90;;;;;;5048213;28;20472;-76
2021/05/12 03:25:04;;;;;;;1.13;0.60;;;10.10;99.90;;;;;;5049413;28;20029;-76
2021/05/12 03:27:30;;;;;;;1.25;0.80;;;10.00;99.90;;;;;;5049461;28;20028;-76
2021/05/12 03:29:55;;;;;;;1.73;0.90;;;10.10;99.90;;;;;;5049431;28;20021;-76
2021/05/12 03:32:21;;;;;;;1.08;0.60;;;10.10;99.90;;;;;;5051477;28;20498;-76
2021/05/12 03:34:46;;;;;;;1.08;0.70;;;10.10;99.90;;;;;;5047096;28;20021;-76
2021/05/12 03:37:12;;;;;;;0.70;0.70;;;10.00;99.90;;;;;;5049385;28;20064;-76
2021/05/12 03:39:37;;;;;;;1.85;0.88;;;10.00;99.90;;;;;;5048065;28;20062;-76
2021/05/12 03:42:03;;;;;;;2.58;0.90;;;10.00;99.90;;;;;;5049517;28;20050;-76
2021/05/12 03:44:29;;;;;;;1.30;0.65;;;10.00;99.90;;;;;;5047979;28;20029;-76
2021/05/12 03:46:54;;;;;;;1.17;0.80;;;10.00;99.90;;;;;;5049132;28;20025;-76
2021/05/12 03:49:20;;;;;;;0.80;0.80;;;10.00;99.90;;;;;;5049259;28;20493;-76
2021/05/12 03:51:45;;;;;;;0.75;0.70;;;10.00;99.90;;;;;;5047971;28;20079;-76
2021/05/12 03:54:11;;;;;;;2.05;0.77;;;10.00;99.90;;;;;;5067409;22;20041;-76
2021/05/12 03:56:37;;;;;;;1.58;0.98;;;10.00;99.90;;;;;;5027843;28;20474;-76
2021/05/12 03:59:03;;;;;;;3.25;0.80;;;10.00;99.90;;;;;;5027894;28;20025;-76
2021/05/12 04:01:28;;;;;;;1.52;1.25;;;10.00;99.90;;;;;;5029158;28;20383;-76
2021/05/12 04:03:54;;;;;;;1.90;1.40;;;10.00;99.90;;;;;;5029201;28;20026;-76
2021/05/12 04:06:19;;;;;;;1.45;0.63;;;10.00;99.90;;;;;;5027996;28;20463;-76
2021/05/12 04:08:45;;;;;;;2.03;0.68;;;9.90;99.90;;;;;;5027938;28;20499;-76
2021/05/12 04:11:11;;;;;;;0.50;0.50;;;9.90;99.90;;;;;;5027873;28;20029;-75
2021/05/12 04:13:37;;;;;;;0.70;0.70;;;9.90;99.90;;;;;;5027846;28;20474;-76
2021/05/12 04:16:03;;;;;;;2.58;0.70;;;9.90;99.90;;;;;;5027931;28;20030;-76
2021/05/12 04:18:29;;;;;;;0.50;0.50;;;9.90;99.90;;;;;;5027884;28;20509;-76
2021/05/12 04:20:55;;;;;;;2.22;0.60;;;9.90;99.90;;;;;;5029320;28;20069;-76
2021/05/12 04:23:20;;;;;;;0.63;0.55;;;9.90;99.90;;;;;;5027897;28;20022;-76
2021/05/12 04:25:46;;;;;;;0.57;0.52;;;9.80;99.90;;;;;;5027623;28;20025;-75
2021/05/12 04:28:12;;;;;;;0.60;0.40;;;9.80;99.90;;;;;;5029236;28;20026;-75
2021/05/12 04:30:37;;;;;;;1.23;0.60;;;9.70;99.90;;;;;;5028946;28;20026;-75
2021/05/12 04:33:04;;;;;;;0.60;0.60;;;9.70;99.90;;;;;;5029251;28;20018;-75
2021/05/12 04:35:30;;;;;;;3.08;0.60;;;9.70;99.90;;;;;;5027646;28;20033;-76
2021/05/12 04:37:56;;;;;;;1.90;0.80;;;9.60;99.90;;;;;;5028988;28;20498;-76
2021/05/12 04:40:22;;;;;;;2.58;0.50;;;9.60;99.90;;;;;;5027692;28;20061;-76
2021/05/12 04:42:49;;;;;;;1.15;0.60;;;9.60;99.90;;;;;;5027730;28;20479;-75
2021/05/12 04:45:16;;;;;;;0.73;0.50;;;9.60;99.90;;;;;;5027762;28;20554;-75
2021/05/12 04:47:42;;;;;;;2.40;0.50;;;9.50;99.90;;;;;;5032519;28;20060;-76
2021/05/12 04:50:10;;;;;;;1.48;0.70;;;9.50;99.90;;;;;;5032575;28;20022;-75
2021/05/12 04:52:36;;;;;;;4.22;0.50;;;9.50;99.90;;;;;;5032592;28;20430;-76
2021/05/12 04:55:02;;;;;;;1.35;0.40;;;9.50;99.90;;;;;;5031059;28;20041;-75
2021/05/12 04:57:27;;;;;;;0.70;0.40;;;9.50;99.90;;;;;;5031151;28;20060;-76
2021/05/12 04:59:53;;;;;;;0.88;0.40;;;9.50;99.90;;;;;;5031191;28;20060;-76
2021/05/12 05:02:18;;;;;;;2.30;0.40;;;9.50;99.90;;;;;;5032345;28;20028;-76
2021/05/12 05:04:44;;;;;;;0.43;0.40;;;9.50;99.90;;;;;;5032490;28;20548;-76
2021/05/12 05:07:10;;;;;;;1.42;0.60;;;9.50;99.90;;;;;;5032092;28;20532;-76
2021/05/12 05:09:35;;;;;;;1.00;0.73;;;9.50;99.90;;;;;;5031061;28;20450;-76
2021/05/12 05:12:01;;;;;;;2.60;0.40;;;9.50;99.90;;;;;;5032289;28;20514;-76
2021/05/12 05:14:27;;;;;;;1.13;0.60;;;9.50;99.90;;;;;;5032134;28;20498;-76
2021/05/12 05:16:53;;;;;;;0.85;0.50;;;9.50;99.90;;;;;;5030633;28;20021;-76
2021/05/12 05:19:18;;;;;;;0.63;0.45;;;9.60;99.90;;;;;;5030724;28;20025;-76
2021/05/12 05:21:44;;;;;;;0.75;0.52;;;9.60;99.90;;;;;;5032031;28;20021;-76
2021/05/12 05:24:10;;;;;;;0.70;0.60;;;9.50;99.90;;;;;;5031921;28;20021;-76
2021/05/12 05:26:36;;;;;;;0.77;0.45;;;9.60;99.90;;;;;;5030742;28;20030;-76
2021/05/12 05:29:02;;;;;;;2.72;1.10;;;9.60;99.90;;;;;;5030597;28;20025;-76
2021/05/12 05:31:28;;;;;;;0.68;0.50;;;9.60;99.90;;;;;;5030584;28;20026;-76
2021/05/12 05:33:54;;;;;;;0.70;0.60;;;9.50;99.90;;;;;;5031835;28;20029;-76
2021/05/12 05:36:20;;;;;;;1.20;0.32;;;9.60;99.90;;;;;;5031917;28;20021;-75
2021/05/12 05:38:45;;;;;;;2.40;0.45;;;9.60;99.90;;;;;;5031677;28;20079;-76
2021/05/12 05:41:11;;;;;;;0.40;0.40;;;9.60;99.90;;;;;;5031729;28;20029;-76
2021/05/12 05:43:36;;;;;;;1.58;0.52;;;9.70;99.90;;;;;;5032190;28;20029;-76
2021/05/12 05:46:02;;;;;;;0.30;0.30;;;9.70;99.90;;;;;;5030374;28;20029;-76
2021/05/12 05:48:27;;;;;;;0.30;0.30;;;9.70;99.90;;;;;;5030534;28;20071;-76
2021/05/12 05:50:53;;;;;;;2.58;0.52;;;9.70;99.90;;;;;;5031646;28;20030;-76
2021/05/12 05:53:20;;;;;;;0.93;0.52;;;9.70;99.90;;;;;;5030265;28;20394;-76
2021/05/12 05:55:47;;;;;;;0.52;0.43;;;9.70;99.90;;;;;;5030094;28;20500;-76
2021/05/12 05:58:12;;;;;;;0.40;0.40;;;9.70;99.90;;;;;;5029294;28;20029;-76
2021/05/12 06:00:40;;;;;;;0.30;0.30;;;9.80;99.90;;;;;;5031695;28;20039;-76
2021/05/12 06:03:07;;;;;;;0.30;0.30;;;9.80;99.90;;;;;;5030063;28;20025;-76
2021/05/12 06:05:32;;;;;;;1.10;0.45;;;9.80;99.90;;;;;;5031338;28;20132;-77
2021/05/12 06:07:58;;;;;;;0.55;0.55;;;9.80;99.90;;;;;;5032976;28;20033;-77
2021/05/12 06:10:24;;;;;;;1.17;0.40;;;9.90;99.90;;;;;;5034532;28;20099;-78
2021/05/12 06:12:51;;;;;;;2.92;0.63;;;10.00;99.90;;;;;;5032895;28;20026;-78
2021/05/12 06:15:20;;;;;;;2.10;0.35;;;10.00;99.90;;;;;;5032103;28;20022;-77
2021/05/12 06:17:47;;;;;;;1.67;0.60;;;10.10;99.90;;;;;;5032901;28;20483;-78
2021/05/12 06:20:14;;;;;;;1.98;0.70;;;10.20;99.90;;;;;;5034697;28;20022;-78
2021/05/12 06:22:41;;;;;;;0.77;0.47;;;10.30;99.90;;;;;;5031995;28;20022;-75
2021/05/12 06:25:10;;;;;;;0.70;0.40;;;10.30;99.90;;;;;;5029759;28;20033;-75
2021/05/12 06:27:36;;;;;;;0.50;0.50;;;10.30;99.90;;;;;;5029689;28;20065;-75
2021/05/12 06:30:03;;;;;;;1.27;0.52;;;10.30;99.90;;;;;;5031084;28;20128;-76
2021/05/12 06:32:28;;;;;;;2.00;0.50;;;10.30;99.90;;;;;;5030976;28;20137;-76
2021/05/12 06:34:54;;;;;;;0.43;0.40;;;10.30;99.90;;;;;;5030959;28;20057;-76
2021/05/12 06:37:19;;;;;;;0.82;0.40;;;10.30;99.90;;;;;;5031215;28;20087;-76
2021/05/12 06:39:45;;;;;;;1.05;0.40;;;10.40;99.90;;;;;;5032547;28;20030;-77
2021/05/12 06:42:10;;;;;;;0.60;0.40;;;10.50;99.90;;;;;;5032230;28;20029;-77
2021/05/12 06:44:36;;;;;;;0.52;0.50;;;10.50;99.90;;;;;;5030120;28;20033;-76
2021/05/12 06:47:02;;;;;;;0.38;0.38;;;10.40;99.90;;;;;;5031505;28;20025;-76
2021/05/12 06:49:27;;;;;;;0.63;0.43;;;10.50;99.90;;;;;;5030266;28;20025;-76
2021/05/12 06:51:56;;;;;;;1.33;0.68;;;10.50;99.90;;;;;;5032072;28;20475;-76
2021/05/12 06:54:21;;;;;;;0.70;0.40;;;10.60;99.90;;;;;;5029779;28;20116;-77
2021/05/12 06:56:47;;;;;;;1.10;0.35;;;10.70;99.90;;;;;;5030295;28;20435;-77
2021/05/12 06:59:13;;;;;;;2.50;0.60;;;10.80;99.90;;;;;;5032329;28;20038;-76
2021/05/12 07:01:38;;;;;;;1.20;0.60;;;10.90;99.90;;;;;;5030866;28;20025;-76
2021/05/12 07:04:04;;;;;;;0.35;0.35;;;10.90;99.90;;;;;;5030906;28;20537;-76
2021/05/12 07:06:30;;;;;;;0.30;0.30;;;11.00;99.90;;;;;;5030312;28;20026;-77
2021/05/12 07:08:55;;;;;;;0.55;0.40;;;11.00;99.90;;;;;;5031769;28;20026;-77
2021/05/12 07:11:21;;;;;;;2.67;0.50;;;11.10;99.90;;;;;;5030791;28;20116;-77
2021/05/12 07:13:50;;;;;;;0.40;0.40;;;11.10;99.90;;;;;;5031992;28;20017;-77
2021/05/12 07:16:15;;;;;;;0.93;0.40;;;11.10;99.90;;;;;;5031299;28;20461;-77
2021/05/12 07:18:41;;;;;;;1.33;0.50;;;11.30;99.90;;;;;;5030829;28;20030;-76
2021/05/12 07:21:06;;;;;;;0.95;0.50;;;11.30;99.90;;;;;;5029700;28;20511;-76
2021/05/12 07:23:32;;;;;;;1.35;0.60;;;11.30;99.90;;;;;;5030820;28;20025;-76
2021/05/12 07:25:58;;;;;;;1.33;0.77;;;11.30;99.90;;;;;;5031302;28;20030;-77
2021/05/12 07:28:24;;;;;;;1.63;0.40;;;11.20;99.90;;;;;;5031702;28;20022;-77
2021/05/12 07:30:50;;;;;;;1.35;0.40;;;11.20;99.90;;;;;;5031469;28;20037;-78
2021/05/12 07:33:16;;;;;;;1.48;0.65;;;11.20;99.90;;;;;;5029901;28;20025;-77
2021/05/12 07:35:43;;;;;;;0.60;0.60;;;11.20;99.90;;;;;;5031407;28;20033;-77
2021/05/12 07:38:09;;;;;;;0.98;0.60;;;11.30;99.90;;;;;;5033006;28;20026;-77
2021/05/12 07:40:35;;;;;;;2.83;0.60;;;11.50;99.90;;;;;;5029870;28;20048;-77
2021/05/12 07:43:06;;;;;;;1.80;0.50;;;11.50;99.90;;;;;;5030496;28;20079;-77
2021/05/12 07:45:33;;;;;;;0.75;0.57;;;11.50;99.90;;;;;;5028644;28;20032;-76
2021/05/12 07:47:58;;;;;;;2.13;0.63;;;11.60;99.90;;;;;;5030371;28;20036;-77
2021/05/12 07:50:24;;;;;;;1.83;0.55;;;11.70;99.90;;;;;;5028634;28;20474;-77
2021/05/12 07:52:51;;;;;;;0.50;0.50;;;11.80;99.90;;;;;;5029964;28;20487;-77
2021/05/12 07:55:16;;;;;;;0.80;0.60;;;11.80;99.90;;;;;;5030206;28;20040;-76
2021/05/12 07:57:42;;;;;;;1.98;0.57;;;12.00;99.90;;;;;;5030645;28;20033;-76
2021/05/12 08:00:09;;;;;;;2.60;0.80;;;12.10;99.90;;;;;;5029987;28;20057;-77
2021/05/12 08:02:35;;;;;;;0.80;0.50;;;12.10;99.90;;;;;;5032336;28;20550;-76
2021/05/12 08:05:00;;;;;;;0.85;0.50;;;12.00;99.90;;;;;;5029215;28;20057;-76
2021/05/12 08:07:27;;;;;;;2.65;0.70;;;12.00;99.90;;;;;;5036197;28;20032;-76
2021/05/12 08:09:53;;;;;;;0.40;0.40;;;12.00;99.90;;;;;;5037544;28;20087;-77
2021/05/12 08:12:19;;;;;;;1.13;0.55;;;12.00;99.90;;;;;;5039233;28;20033;-76
2021/05/12 08:14:45;;;;;;;1.20;0.70;;;12.10;99.90;;;;;;5038844;28;20431;-77
2021/05/12 08:17:11;;;;;;;1.13;0.70;;;12.10;99.90;;;;;;5028845;28;20533;-77
2021/05/12 08:19:36;;;;;;;1.02;0.70;;;12.10;99.90;;;;;;5029721;28;20044;-76
2021/05/12 08:22:04;;;;;;;1.70;0.95;;;12.20;99.90;;;;;;5031819;28;20018;-77
2021/05/12 08:24:30;;;;;;;1.00;0.70;;;12.30;99.90;;;;;;5032797;28;20036;-76
2021/05/12 08:26:56;;;;;;;0.95;0.73;;;12.30;99.90;;;;;;5032586;28;20026;-76
2021/05/12 08:29:22;;;;;;;0.98;0.60;;;12.40;99.90;;;;;;5032148;28;20025;-76
2021/05/12 08:31:47;;;;;;;2.35;1.08;;;12.30;99.90;;;;;;5033288;28;20068;-76
2021/05/12 08:34:13;;;;;;;0.70;0.70;;;12.30;99.90;;;;;;5031898;28;20117;-76
2021/05/12 08:36:39;;;;;;;0.70;0.70;;;12.30;99.90;;;;;;5033530;28;20113;-77
2021/05/12 08:39:06;;;;;;;0.60;0.50;;;12.30;99.90;;;;;;5033112;28;20508;-76
2021/05/12 08:41:34;;;;;;;1.27;0.52;;;12.30;99.90;;;;;;5032073;28;20082;-76
2021/05/12 08:44:05;;;;;;;1.38;0.65;;;12.20;99.90;;;;;;5033938;28;20100;-77
2021/05/12 08:46:36;;;;;;;1.65;0.80;;;12.00;99.90;;;;;;5033037;28;20036;-76
2021/05/12 08:49:03;;;;;;;0.60;0.60;;;11.90;99.90;;;;;;5032314;28;20034;-75
2021/05/12 08:51:29;;;;;;;1.23;0.80;;;11.90;99.90;;;;;;5033240;28;20053;-75
2021/05/12 08:53:56;;;;;;;0.70;0.70;;;11.90;99.90;;;;;;5033722;28;20075;-75
2021/05/12 08:56:22;;;;;;;1.95;0.80;;;12.00;99.90;;;;;;5032350;28;20023;-74
2021/05/12 08:58:48;;;;;;;2.95;0.80;;;12.00;99.90;;;;;;5033352;28;20402;-76
2021/05/12 09:01:15;;;;;;;0.80;0.80;;;12.20;99.90;;;;;;5033490;28;20033;-76
2021/05/12 09:03:46;;;;;;;1.48;0.82;;;12.30;99.90;;;;;;5033120;28;20113;-76
2021/05/12 09:06:12;;;;;;;2.70;1.00;;;12.40;99.90;;;;;;5033016;28;20444;-76
2021/05/12 09:08:38;;;;;;;1.10;1.00;;;12.50;99.90;;;;;;5031675;28;20116;-76
2021/05/12 09:11:05;;;;;;;1.52;1.08;;;12.60;99.90;;;;;;5032721;28;20489;-76
2021/05/12 09:13:37;;;;;;;1.60;1.20;;;12.70;99.90;;;;;;5034272;28;20034;-76
2021/05/12 09:16:35;;;;;;;2.00;1.13;;;13.00;99.90;;;;;;5033503;28;20020;-76
2021/05/12 09:19:07;;;;;;;1.42;1.10;;;13.30;99.90;;;;;;4989250;28;20034;-75
2021/05/12 09:21:54;;;;;;;0.85;0.80;;;13.30;99.90;;;;;;5031574;28;20479;-76
2021/05/12 09:24:36;;;;;;;2.80;1.05;;;13.30;99.90;;;;;;5031145;28;20017;-76
2021/05/12 09:27:23;;;;;;;1.40;1.30;;;13.40;99.90;;;;;;5032838;28;20510;-76
2021/05/12 09:30:03;;;;;;;2.35;1.33;;;13.30;99.90;;;;;;5031428;28;20096;-76
2021/05/12 09:32:43;;;;;;;1.40;1.10;;;13.20;99.90;;;;;;5031460;28;20109;-76
2021/05/12 09:35:09;;;;;;;1.20;0.93;;;13.20;99.90;;;;;;5032591;28;20445;-75
2021/05/12 09:37:36;;;;;;;0.90;0.90;;;13.30;99.90;;;;;;5032751;28;20045;-76
2021/05/12 09:40:15;;;;;;;1.25;1.05;;;13.50;99.90;;;;;;5032399;28;20033;-75
2021/05/12 09:42:42;;;;;;;2.78;1.85;;;13.50;99.90;;;;;;5032569;28;20084;-76
2021/05/12 09:45:19;;;;;;;1.50;1.40;;;13.40;99.90;;;;;;5030756;28;20442;-76
2021/05/12 09:47:50;;;;;;;1.95;1.10;;;13.20;99.90;;;;;;5032381;28;20124;-76
2021/05/12 09:50:28;;;;;;;3.67;1.30;;;13.20;99.90;;;;;;5032048;28;20029;-76
2021/05/12 09:53:04;;;;;;;3.72;1.38;;;13.00;99.90;;;;;;5032368;28;20505;-76
2021/05/12 09:55:45;;;;;;;1.67;1.30;;;12.90;99.90;;;;;;5060687;22;20047;-75
2021/05/12 09:58:17;;;;;;;1.83;1.42;;;12.80;99.90;;;;;;5049998;28;20541;-75
2021/05/12 10:00:44;;;;;;;2.50;1.30;;;12.70;99.90;;;;;;5051265;28;20039;-75
2021/05/12 10:03:13;;;;;;;1.48;1.38;;;12.90;99.90;;;;;;5051200;28;20057;-75
2021/05/12 10:05:58;;;;;;;1.70;1.40;;;13.00;99.90;;;;;;5051236;28;20187;-75
2021/05/12 10:08:24;;;;;;;2.20;1.70;;;13.10;99.90;;;;;;5050052;28;20046;-77
2021/05/12 10:10:55;;;;;;;3.58;1.58;;;13.00;99.90;;;;;;5049877;28;20029;-76
2021/05/12 10:13:20;;;;;;;2.15;1.60;;;12.90;99.90;;;;;;5049974;28;20445;-75
2021/05/12 10:15:46;;;;;;;2.03;1.83;;;12.90;99.90;;;;;;5050968;28;20017;-76
2021/05/12 10:18:12;;;;;;;3.47;2.22;;;12.70;99.90;;;;;;5049573;28;20083;-76
2021/05/12 10:20:41;;;;;;;2.95;2.25;;;12.70;99.90;;;;;;5050944;28;20516;-76
2021/05/12 10:23:08;;;;;;;2.30;2.10;;;12.80;99.90;;;;;;5050861;28;20025;-76
2021/05/12 10:25:35;;;;;;;2.55;2.25;;;12.80;99.90;;;;;;5050712;28;20033;-75
2021/05/12 10:28:02;;;;;;;3.42;2.63;;;12.80;99.90;;;;;;5050748;28;20033;-75
2021/05/12 10:30:28;;;;;;;3.05;2.75;;;12.80;99.90;;;;;;5049312;28;20024;-75
2021/05/12 10:32:56;;;;;;;3.17;2.30;;;12.90;99.90;;;;;;5049276;28;20025;-75
2021/05/12 10:35:34;;;;;;;2.55;2.35;;;12.90;99.90;;;;;;5049121;28;20017;-75
2021/05/12 10:38:01;;;;;;;2.45;2.25;;;13.10;99.90;;;;;;5049281;28;20028;-75
2021/05/12 10:40:30;;;;;;;4.88;2.70;;;13.00;99.90;;;;;;5049128;28;20033;-76
2021/05/12 10:43:20;;;;;;;2.88;2.58;;;12.90;99.90;;;;;;5049911;28;20025;-76
2021/05/12 10:48:48;;;;;;;6.35;3.72;;;12.80;99.90;;;;;;5005974;28;20032;-76
2021/05/12 10:51:20;;;;;;;4.70;3.55;;;12.90;99.90;;;;;;5050228;28;20485;-75
2021/05/12 10:53:50;;;;;;;7.97;4.63;;;13.00;99.90;;;;;;5050228;28;20021;-75
2021/05/12 10:56:17;;;;;;;5.55;3.80;;;13.10;99.90;;;;;;5050011;28;20071;-75
2021/05/12 10:58:45;;;;;;;4.63;3.65;;;13.20;99.90;;;;;;5050015;28;20017;-75
2021/05/12 11:01:11;;;;;;;3.22;2.88;;;13.50;99.90;;;;;;5050034;28;20031;-75
2021/05/12 11:03:52;;;;;;;3.10;2.38;;;13.70;99.90;;;;;;5050258;28;20017;-75
2021/05/12 11:06:22;;;;;;;2.55;2.30;;;13.90;99.90;;;;;;5050701;28;20109;-75
2021/05/12 11:09:17;;;;;;;3.38;3.08;;;14.00;99.90;;;;;;5048586;28;20104;-75
2021/05/12 11:11:51;;;;;;;3.65;3.17;;;14.20;99.90;;;;;;5046941;28;20029;-75
2021/05/12 11:14:27;;;;;;;3.50;2.80;;;14.40;99.90;;;;;;5050051;28;20044;-75
2021/05/12 11:17:21;;;;;;;4.25;3.30;;;14.50;99.90;;;;;;5048634;28;20054;-75
2021/05/12 11:19:53;;;;;;;4.13;3.45;;;14.50;99.90;;;;;;5048559;28;20032;-75
2021/05/12 11:24:57;;;;;;;5.38;3.40;;;14.50;99.90;;;;;;5050039;28;20500;-75
2021/05/12 11:32:26;;;;;;;4.32;3.47;;;14.70;99.90;;;;;;5050060;28;20029;-75
2021/05/12 11:34:51;;;;;;;4.15;3.55;;;14.80;99.90;;;;;;5049494;28;20039;-75
2021/05/12 11:37:23;;;;;;;5.20;3.70;;;14.60;99.90;;;;;;5049869;28;20096;-75
2021/05/12 11:39:50;;;;;;;4.15;3.75;;;14.60;99.90;;;;;;5049548;28;20041;-75
2021/05/12 11:42:19;;;;;;;5.32;3.70;;;14.60;99.90;;;;;;5048189;28;20032;-75
2021/05/12 11:44:45;;;;;;;6.10;3.90;;;14.40;99.90;;;;;;5049334;28;20013;-76
2021/05/12 11:47:10;;;;;;;4.63;3.90;;;14.20;99.90;;;;;;5049280;28;20052;-75
2021/05/12 11:49:39;;;;;;;5.70;4.22;;;14.00;99.90;;;;;;5049319;28;20079;-75
2021/05/12 11:52:05;;;;;;;4.70;4.18;;;13.90;99.90;;;;;;5049273;28;20013;-74
2021/05/12 11:54:31;;;;;;;5.72;4.13;;;13.80;99.90;;;;;;5047583;28;20067;-75
2021/05/12 11:57:01;;;;;;;5.20;4.03;;;13.80;99.90;;;;;;5047469;28;20070;-75
2021/05/12 11:59:30;;;;;;;4.78;3.70;;;13.90;99.90;;;;;;5049420;28;20040;-75
2021/05/12 12:02:04;;;;;;;6.70;4.25;;;14.00;99.90;;;;;;5047938;28;20508;-75
2021/05/12 12:04:36;;;;;;;5.80;4.07;;;13.90;99.90;;;;;;5047967;28;20033;-75
2021/05/12 12:07:03;;;;;;;6.05;4.63;;;13.90;99.90;;;;;;5047988;28;20032;-75
2021/05/12 12:09:29;;;;;;;5.25;4.50;;;13.90;99.90;;;;;;5047823;28;20545;-75
2021/05/12 12:11:56;;;;;;;5.70;4.50;;;13.80;99.90;;;;;;5049182;28;20117;-76
2021/05/12 12:14:35;;;;;;;5.85;4.63;;;13.70;99.90;;;;;;5049003;28;20390;-75
2021/05/12 12:17:01;;;;;;;6.60;5.00;;;13.60;99.90;;;;;;5048182;28;20028;-75
2021/05/12 12:19:27;;;;;;;5.40;4.40;;;13.70;99.90;;;;;;5049145;28;20064;-75
2021/05/12 12:21:56;;;;;;;5.53;4.82;;;13.80;99.90;;;;;;5049118;28;20056;-74
2021/05/12 12:24:25;;;;;;;5.80;4.82;;;13.90;99.90;;;;;;5049098;28;20021;-75
2021/05/12 12:26:54;;;;;;;5.35;4.55;;;13.80;99.90;;;;;;5047981;28;20060;-75
2021/05/12 12:29:25;;;;;;;5.72;4.95;;;13.80;99.90;;;;;;5049384;28;20021;-75
2021/05/12 12:32:07;;;;;;;6.25;4.70;;;13.60;99.90;;;;;;5048256;28;20028;-75
2021/05/12 12:34:39;;;;;;;5.93;4.40;;;13.60;99.90;;;;;;5049832;28;20024;-75
2021/05/12 12:37:15;;;;;;;6.15;5.07;;;13.60;99.90;;;;;;5048070;28;20021;-75
2021/05/12 12:39:57;;;;;;;7.80;5.95;;;13.60;99.90;;;;;;5048939;28;20441;-75
2021/05/12 12:42:34;;;;;;;7.47;6.13;;;13.40;99.90;;;;;;5049774;28;20079;-74
2021/05/12 12:45:34;;;;;;;6.03;5.40;;;13.30;99.90;;;;;;5048429;28;20491;-75
2021/05/12 12:48:04;;;;;;;7.07;5.82;;;13.30;99.90;;;;;;5047850;28;20037;-74
2021/05/12 12:50:34;;;;;;;8.50;6.90;;;13.10;99.90;;;;;;5049111;28;20021;-75
2021/05/12 12:53:02;;;;;;;7.43;6.55;;;12.90;99.90;;;;;;5049151;28;20027;-75
2021/05/12 12:55:32;;;;;;;9.10;7.25;;;12.90;99.90;;;;;;5049006;28;20520;-75
2021/05/12 12:58:03;;;;;;;9.75;7.55;;;12.80;99.90;;;;;;5047586;28;20099;-75
2021/05/12 13:00:32;;;;;;;10.02;7.72;;;12.90;99.90;;;;;;5047823;28;20239;-75
2021/05/12 13:03:11;;;;;;;9.80;7.65;;;13.10;99.90;;;;;;5048944;28;20064;-75